weather.gov     
National Weather Service

Terminal Aerodrome Forecast
NWS Homepage
This page is being discontinued on March 12, 2014.
The same data is available at this site. Please update your bookmarks.
Thank you, and we apologize for the inconvenience.
Please send an email to SR-SRH.Webmaster@noaa.gov with any concerns.


Current Version
Previous Version:    01  02  03  04  05  06  07  08  09  10  11  12  13  14  
[Printable]
595
FTUS41 KBOX 210524
TAFORH
TAF
KORH 210524Z 2106/2206 02006KT P6SM OVC015
     FM211000 01005KT 3SM -SHSN OVC015
     FM211400 02005KT P6SM OVC020
     FM211800 01004KT P6SM OVC025
     FM212100 01004KT P6SM OVC025
     FM220000 02004KT P6SM OVC025
     FM220300 01004KT P6SM BKN035=




595
FTUS41 KBOX 210524
TAFORH
TAF
KORH 210524Z 2106/2206 02006KT P6SM OVC015
     FM211000 01005KT 3SM -SHSN OVC015
     FM211400 02005KT P6SM OVC020
     FM211800 01004KT P6SM OVC025
     FM212100 01004KT P6SM OVC025
     FM220000 02004KT P6SM OVC025
     FM220300 01004KT P6SM BKN035=


U.S. Dept. of Commerce
NOAA National Weather Service
1325 East West Highway
Silver Spring, MD 20910
E-mail: w-nws.webmaster@noaa.gov
Page last modified: May 16, 2007
NATIONAL WEATHER SERVICE: for Safety, for Work, for Fun - FOR LIFE